sensor_id;sensor_type;location;lat;lon;timestamp;temperature;humidity
55016;DHT22;40919;43.236;21.590;2023-05-23T00:01:44;410.50;2355.20
55016;DHT22;40919;43.236;21.590;2023-05-23T00:04:11;410.20;2355.20
55016;DHT22;40919;43.236;21.590;2023-05-23T00:06:42;410.30;2355.20
55016;DHT22;40919;43.236;21.590;2023-05-23T00:09:14;410.30;2355.20
55016;DHT22;40919;43.236;21.590;2023-05-23T00:11:40;410.20;2355.20
55016;DHT22;40919;43.236;21.590;2023-05-23T00:14:12;410.40;2355.20
55016;DHT22;40919;43.236;21.590;2023-05-23T00:16:40;410.30;2355.20
55016;DHT22;40919;43.236;21.590;2023-05-23T00:19:06;410.00;2355.20
55016;DHT22;40919;43.236;21.590;2023-05-23T00:21:32;410.20;2355.20
55016;DHT22;40919;43.236;21.590;2023-05-23T00:23:58;409.80;2355.20
55016;DHT22;40919;43.236;21.590;2023-05-23T00:26:24;409.70;2355.20
55016;DHT22;40919;43.236;21.590;2023-05-23T00:28:54;409.90;2355.20
55016;DHT22;40919;43.236;21.590;2023-05-23T00:31:21;410.00;2355.20
55016;DHT22;40919;43.236;21.590;2023-05-23T00:33:47;410.10;2355.20
55016;DHT22;40919;43.236;21.590;2023-05-23T00:36:13;410.10;2355.20
55016;DHT22;40919;43.236;21.590;2023-05-23T00:38:39;410.00;2355.20
55016;DHT22;40919;43.236;21.590;2023-05-23T00:41:05;409.90;2355.20
55016;DHT22;40919;43.236;21.590;2023-05-23T00:43:31;410.00;2355.20
55016;DHT22;40919;43.236;21.590;2023-05-23T00:45:57;410.00;2355.20
55016;DHT22;40919;43.236;21.590;2023-05-23T00:48:25;410.10;2355.20
55016;DHT22;40919;43.236;21.590;2023-05-23T00:50:52;409.90;2355.20
55016;DHT22;40919;43.236;21.590;2023-05-23T00:53:18;409.90;2355.20
55016;DHT22;40919;43.236;21.590;2023-05-23T00:55:44;409.80;2355.20
55016;DHT22;40919;43.236;21.590;2023-05-23T00:58:10;410.00;2355.20
55016;DHT22;40919;43.236;21.590;2023-05-23T01:00:38;409.70;2355.20
55016;DHT22;40919;43.236;21.590;2023-05-23T01:03:04;384.90;2329.60
55016;DHT22;40919;43.236;21.590;2023-05-23T01:05:30;384.90;2329.60
55016;DHT22;40919;43.236;21.590;2023-05-23T01:07:56;409.60;2355.20
55016;DHT22;40919;43.236;21.590;2023-05-23T01:10:28;409.60;2355.20
55016;DHT22;40919;43.236;21.590;2023-05-23T01:16:01;409.60;2355.20
55016;DHT22;40919;43.236;21.590;2023-05-23T01:18:42;409.70;2355.20
55016;DHT22;40919;43.236;21.590;2023-05-23T01:21:16;409.60;2355.20
55016;DHT22;40919;43.236;21.590;2023-05-23T01:29:21;384.90;2329.60
55016;DHT22;40919;43.236;21.590;2023-05-23T01:31:52;384.90;2329.60
55016;DHT22;40919;43.236;21.590;2023-05-23T01:34:20;384.90;2329.60
55016;DHT22;40919;43.236;21.590;2023-05-23T01:36:52;384.90;2329.60
55016;DHT22;40919;43.236;21.590;2023-05-23T01:39:19;384.90;2329.60
55016;DHT22;40919;43.236;21.590;2023-05-23T01:41:45;384.60;2329.60
55016;DHT22;40919;43.236;21.590;2023-05-23T01:44:12;384.70;2329.60
55016;DHT22;40919;43.236;21.590;2023-05-23T01:46:38;384.90;2329.60
55016;DHT22;40919;43.236;21.590;2023-05-23T01:49:07;384.70;2329.60
55016;DHT22;40919;43.236;21.590;2023-05-23T01:51:34;384.70;2329.60
55016;DHT22;40919;43.236;21.590;2023-05-23T01:54:00;384.70;2329.60
55016;DHT22;40919;43.236;21.590;2023-05-23T01:56:27;384.70;2329.60
55016;DHT22;40919;43.236;21.590;2023-05-23T01:58:53;384.70;2329.60
55016;DHT22;40919;43.236;21.590;2023-05-23T02:01:19;384.70;2329.60
55016;DHT22;40919;43.236;21.590;2023-05-23T02:03:45;384.60;2329.60
55016;DHT22;40919;43.236;21.590;2023-05-23T02:06:11;384.60;2329.60
55016;DHT22;40919;43.236;21.590;2023-05-23T02:08:37;384.40;2329.60
55016;DHT22;40919;43.236;21.590;2023-05-23T02:11:03;384.40;2329.60
55016;DHT22;40919;43.236;21.590;2023-05-23T02:13:29;384.40;2329.60
55016;DHT22;40919;43.236;21.590;2023-05-23T02:15:55;384.30;2329.60
55016;DHT22;40919;43.236;21.590;2023-05-23T02:18:21;359.30;2329.60
55016;DHT22;40919;43.236;21.590;2023-05-23T02:20:47;384.10;2329.60
55016;DHT22;40919;43.236;21.590;2023-05-23T02:23:13;384.10;2329.60
55016;DHT22;40919;43.236;21.590;2023-05-23T02:25:38;384.10;2329.60
55016;DHT22;40919;43.236;21.590;2023-05-23T02:28:04;384.00;2329.60
55016;DHT22;40919;43.236;21.590;2023-05-23T02:30:30;384.00;2329.60
55016;DHT22;40919;43.236;21.590;2023-05-23T02:32:56;384.00;2329.60
55016;DHT22;40919;43.236;21.590;2023-05-23T02:35:22;384.00;2329.60
55016;DHT22;40919;43.236;21.590;2023-05-23T02:37:48;384.10;2329.60
55016;DHT22;40919;43.236;21.590;2023-05-23T02:40:14;384.00;2329.60
55016;DHT22;40919;43.236;21.590;2023-05-23T02:42:40;359.30;2329.60
55016;DHT22;40919;43.236;21.590;2023-05-23T02:45:06;359.20;2329.60
55016;DHT22;40919;43.236;21.590;2023-05-23T02:47:32;384.30;2329.60
55016;DHT22;40919;43.236;21.590;2023-05-23T02:49:58;359.30;2329.60
55016;DHT22;40919;43.236;21.590;2023-05-23T02:52:24;359.20;2329.60
55016;DHT22;40919;43.236;21.590;2023-05-23T02:54:50;359.10;2329.60
55016;DHT22;40919;43.236;21.590;2023-05-23T02:57:16;359.20;2329.60
55016;DHT22;40919;43.236;21.590;2023-05-23T02:59:43;359.20;2329.60
55016;DHT22;40919;43.236;21.590;2023-05-23T03:02:09;359.20;2329.60
55016;DHT22;40919;43.236;21.590;2023-05-23T03:04:35;359.20;2329.60
55016;DHT22;40919;43.236;21.590;2023-05-23T03:07:02;359.00;2329.60
55016;DHT22;40919;43.236;21.590;2023-05-23T03:09:28;358.90;2329.60
55016;DHT22;40919;43.236;21.590;2023-05-23T03:11:54;358.90;2329.60
55016;DHT22;40919;43.236;21.590;2023-05-23T03:14:19;358.90;2329.60
55016;DHT22;40919;43.236;21.590;2023-05-23T03:16:45;358.90;2329.60
55016;DHT22;40919;43.236;21.590;2023-05-23T03:19:11;359.00;2329.60
55016;DHT22;40919;43.236;21.590;2023-05-23T03:21:38;358.90;2329.60
55016;DHT22;40919;43.236;21.590;2023-05-23T03:24:03;358.90;2329.60
55016;DHT22;40919;43.236;21.590;2023-05-23T03:26:29;359.00;2329.60
55016;DHT22;40919;43.236;21.590;2023-05-23T03:28:55;359.00;2329.60
55016;DHT22;40919;43.236;21.590;2023-05-23T03:31:21;358.90;2329.60
55016;DHT22;40919;43.236;21.590;2023-05-23T03:33:47;358.60;2329.60
55016;DHT22;40919;43.236;21.590;2023-05-23T03:36:12;358.80;2329.60
55016;DHT22;40919;43.236;21.590;2023-05-23T03:38:38;358.90;2329.60
55016;DHT22;40919;43.236;21.590;2023-05-23T03:41:04;358.90;2329.60
55016;DHT22;40919;43.236;21.590;2023-05-23T03:43:30;358.80;2329.60
55016;DHT22;40919;43.236;21.590;2023-05-23T03:45:56;358.90;2329.60
55016;DHT22;40919;43.236;21.590;2023-05-23T03:48:21;358.90;2329.60
55016;DHT22;40919;43.236;21.590;2023-05-23T03:50:47;358.90;2329.60
55016;DHT22;40919;43.236;21.590;2023-05-23T03:53:13;359.00;2329.60
55016;DHT22;40919;43.236;21.590;2023-05-23T03:55:39;358.90;2329.60
55016;DHT22;40919;43.236;21.590;2023-05-23T03:58:04;359.00;2329.60
55016;DHT22;40919;43.236;21.590;2023-05-23T04:00:30;359.00;2329.60
55016;DHT22;40919;43.236;21.590;2023-05-23T04:02:56;359.00;2329.60
55016;DHT22;40919;43.236;21.590;2023-05-23T04:05:22;358.90;2329.60
55016;DHT22;40919;43.236;21.590;2023-05-23T04:07:48;358.80;2329.60
55016;DHT22;40919;43.236;21.590;2023-05-23T04:10:14;358.80;2329.60
55016;DHT22;40919;43.236;21.590;2023-05-23T04:12:40;358.80;2329.60
55016;DHT22;40919;43.236;21.590;2023-05-23T04:15:08;358.80;2329.60
55016;DHT22;40919;43.236;21.590;2023-05-23T04:17:35;358.80;2329.60
55016;DHT22;40919;43.236;21.590;2023-05-23T04:20:08;358.80;2329.60
55016;DHT22;40919;43.236;21.590;2023-05-23T04:22:34;358.80;2329.60
55016;DHT22;40919;43.236;21.590;2023-05-23T04:25:00;358.90;2329.60
55016;DHT22;40919;43.236;21.590;2023-05-23T04:27:26;359.00;2329.60
55016;DHT22;40919;43.236;21.590;2023-05-23T04:29:51;359.00;2329.60
55016;DHT22;40919;43.236;21.590;2023-05-23T04:32:17;359.00;2329.60
55016;DHT22;40919;43.236;21.590;2023-05-23T04:34:47;359.00;2329.60
55016;DHT22;40919;43.236;21.590;2023-05-23T04:37:13;359.20;2329.60
55016;DHT22;40919;43.236;21.590;2023-05-23T04:39:39;359.20;2329.60
55016;DHT22;40919;43.236;21.590;2023-05-23T04:42:05;359.00;2329.60
55016;DHT22;40919;43.236;21.590;2023-05-23T04:44:32;359.10;2329.60
55016;DHT22;40919;43.236;21.590;2023-05-23T04:46:58;359.10;2329.60
55016;DHT22;40919;43.236;21.590;2023-05-23T04:49:24;359.20;2329.60
55016;DHT22;40919;43.236;21.590;2023-05-23T04:51:49;359.30;2329.60
55016;DHT22;40919;43.236;21.590;2023-05-23T04:54:15;384.00;2329.60
55016;DHT22;40919;43.236;21.590;2023-05-23T04:56:41;384.00;2329.60
55016;DHT22;40919;43.236;21.590;2023-05-23T04:59:07;384.00;2329.60
55016;DHT22;40919;43.236;21.590;2023-05-23T05:01:35;384.00;2329.60
55016;DHT22;40919;43.236;21.590;2023-05-23T05:04:05;359.30;2329.60
55016;DHT22;40919;43.236;21.590;2023-05-23T05:06:31;384.00;2329.60
55016;DHT22;40919;43.236;21.590;2023-05-23T05:08:57;384.10;2329.60
55016;DHT22;40919;43.236;21.590;2023-05-23T05:11:24;384.20;2329.60
55016;DHT22;40919;43.236;21.590;2023-05-23T05:13:51;384.20;2329.60
55016;DHT22;40919;43.236;21.590;2023-05-23T05:16:17;384.30;2329.60
55016;DHT22;40919;43.236;21.590;2023-05-23T05:18:43;384.30;2329.60
55016;DHT22;40919;43.236;21.590;2023-05-23T05:21:08;384.30;2329.60
55016;DHT22;40919;43.236;21.590;2023-05-23T05:23:35;384.40;2329.60
55016;DHT22;40919;43.236;21.590;2023-05-23T05:26:00;384.50;2329.60
55016;DHT22;40919;43.236;21.590;2023-05-23T05:28:27;384.50;2329.60
55016;DHT22;40919;43.236;21.590;2023-05-23T05:30:53;384.40;2329.60
55016;DHT22;40919;43.236;21.590;2023-05-23T05:33:20;384.50;2329.60
55016;DHT22;40919;43.236;21.590;2023-05-23T05:35:48;384.70;2329.60
55016;DHT22;40919;43.236;21.590;2023-05-23T05:38:16;384.60;2329.60
55016;DHT22;40919;43.236;21.590;2023-05-23T05:40:41;384.70;2329.60
55016;DHT22;40919;43.236;21.590;2023-05-23T05:43:07;384.90;2329.60
55016;DHT22;40919;43.236;21.590;2023-05-23T05:45:34;409.60;2355.20
55016;DHT22;40919;43.236;21.590;2023-05-23T05:48:00;409.70;2355.20
55016;DHT22;40919;43.236;21.590;2023-05-23T05:50:26;409.70;2355.20
55016;DHT22;40919;43.236;21.590;2023-05-23T05:52:52;409.80;2355.20
55016;DHT22;40919;43.236;21.590;2023-05-23T05:55:18;409.90;2355.20
55016;DHT22;40919;43.236;21.590;2023-05-23T05:57:43;410.00;2355.20
55016;DHT22;40919;43.236;21.590;2023-05-23T06:00:12;410.20;2355.20
55016;DHT22;40919;43.236;21.590;2023-05-23T06:02:40;410.30;2355.20
55016;DHT22;40919;43.236;21.590;2023-05-23T06:05:10;410.50;2355.20
55016;DHT22;40919;43.236;21.590;2023-05-23T06:07:43;435.20;2355.20
55016;DHT22;40919;43.236;21.590;2023-05-23T06:10:10;435.30;2355.20
55016;DHT22;40919;43.236;21.590;2023-05-23T06:12:38;435.40;2355.20
55016;DHT22;40919;43.236;21.590;2023-05-23T06:15:05;435.50;2355.20
55016;DHT22;40919;43.236;21.590;2023-05-23T06:17:31;435.60;2355.20
55016;DHT22;40919;43.236;21.590;2023-05-23T06:19:57;435.60;2355.20
55016;DHT22;40919;43.236;21.590;2023-05-23T06:22:23;435.80;2355.20
55016;DHT22;40919;43.236;21.590;2023-05-23T06:24:48;435.90;2355.20
55016;DHT22;40919;43.236;21.590;2023-05-23T06:27:14;436.00;2355.20
55016;DHT22;40919;43.236;21.590;2023-05-23T06:29:40;436.10;2355.20
55016;DHT22;40919;43.236;21.590;2023-05-23T06:32:06;460.90;2380.80
55016;DHT22;40919;43.236;21.590;2023-05-23T06:34:32;461.10;2380.80
55016;DHT22;40919;43.236;21.590;2023-05-23T06:36:58;461.10;2380.80
55016;DHT22;40919;43.236;21.590;2023-05-23T06:39:24;461.20;2380.80
55016;DHT22;40919;43.236;21.590;2023-05-23T06:41:49;461.30;2380.80
55016;DHT22;40919;43.236;21.590;2023-05-23T06:44:16;461.50;2380.80
55016;DHT22;40919;43.236;21.590;2023-05-23T06:46:45;461.70;2380.80
55016;DHT22;40919;43.236;21.590;2023-05-23T06:49:12;486.40;2380.80
55016;DHT22;40919;43.236;21.590;2023-05-23T06:51:37;486.40;2380.80
55016;DHT22;40919;43.236;21.590;2023-05-23T06:54:03;486.70;2380.80
55016;DHT22;40919;43.236;21.590;2023-05-23T06:56:29;486.70;2380.80
55016;DHT22;40919;43.236;21.590;2023-05-23T06:58:55;486.80;2380.80
55016;DHT22;40919;43.236;21.590;2023-05-23T07:01:21;487.10;2380.80
55016;DHT22;40919;43.236;21.590;2023-05-23T07:03:47;487.10;2380.80
55016;DHT22;40919;43.236;21.590;2023-05-23T07:06:13;487.20;2380.80
55016;DHT22;40919;43.236;21.590;2023-05-23T07:08:39;487.30;2380.80
55016;DHT22;40919;43.236;21.590;2023-05-23T07:11:05;512.00;2380.80
55016;DHT22;40919;43.236;21.590;2023-05-23T07:13:31;512.10;2380.80
55016;DHT22;40919;43.236;21.590;2023-05-23T07:15:57;512.20;2380.80
55016;DHT22;40919;43.236;21.590;2023-05-23T07:18:23;512.30;2380.80
55016;DHT22;40919;43.236;21.590;2023-05-23T07:20:49;512.40;2380.80
55016;DHT22;40919;43.236;21.590;2023-05-23T07:23:15;512.70;2380.80
55016;DHT22;40919;43.236;21.590;2023-05-23T07:25:41;537.60;2406.40
55016;DHT22;40919;43.236;21.590;2023-05-23T07:28:08;537.80;2406.40
55016;DHT22;40919;43.236;21.590;2023-05-23T07:30:34;537.80;2406.40
55016;DHT22;40919;43.236;21.590;2023-05-23T07:35:26;538.00;2406.40
55016;DHT22;40919;43.236;21.590;2023-05-23T07:37:52;538.00;2406.40
55016;DHT22;40919;43.236;21.590;2023-05-23T07:40:18;538.00;2406.40
55016;DHT22;40919;43.236;21.590;2023-05-23T07:42:44;538.00;2406.40
55016;DHT22;40919;43.236;21.590;2023-05-23T07:45:10;538.00;2406.40
55016;DHT22;40919;43.236;21.590;2023-05-23T07:47:36;538.20;2406.40
55016;DHT22;40919;43.236;21.590;2023-05-23T07:50:03;538.20;2406.40
55016;DHT22;40919;43.236;21.590;2023-05-23T07:52:29;538.30;2406.40
55016;DHT22;40919;43.236;21.590;2023-05-23T07:54:57;538.50;2406.40
55016;DHT22;40919;43.236;21.590;2023-05-23T07:57:23;563.20;2432.00
55016;DHT22;40919;43.236;21.590;2023-05-23T07:59:52;563.50;2432.00
55016;DHT22;40919;43.236;21.590;2023-05-23T08:02:18;563.80;2432.00
55016;DHT22;40919;43.236;21.590;2023-05-23T08:04:46;563.90;2432.00
55016;DHT22;40919;43.236;21.590;2023-05-23T08:07:12;564.10;2432.00
55016;DHT22;40919;43.236;21.590;2023-05-23T08:09:38;564.10;2432.00
55016;DHT22;40919;43.236;21.590;2023-05-23T08:12:08;589.00;2432.00
55016;DHT22;40919;43.236;21.590;2023-05-23T08:14:34;588.90;2432.00
55016;DHT22;40919;43.236;21.590;2023-05-23T08:17:00;589.10;2432.00
55016;DHT22;40919;43.236;21.590;2023-05-23T08:19:27;589.20;2432.00
55016;DHT22;40919;43.236;21.590;2023-05-23T08:21:53;589.30;2432.00
55016;DHT22;40919;43.236;21.590;2023-05-23T08:24:19;589.50;2432.00
55016;DHT22;40919;43.236;21.590;2023-05-23T08:26:45;589.50;2406.40
55016;DHT22;40919;43.236;21.590;2023-05-23T08:29:12;589.30;2432.00
55016;DHT22;40919;43.236;21.590;2023-05-23T08:31:38;589.60;2432.00
55016;DHT22;40919;43.236;21.590;2023-05-23T08:34:03;589.70;2432.00
55016;DHT22;40919;43.236;21.590;2023-05-23T08:36:29;589.60;2406.40
55016;DHT22;40919;43.236;21.590;2023-05-23T08:38:58;589.60;2380.80
55016;DHT22;40919;43.236;21.590;2023-05-23T08:41:24;614.50;2406.40
55016;DHT22;40919;43.236;21.590;2023-05-23T08:43:51;614.80;2329.60
55016;DHT22;40919;43.236;21.590;2023-05-23T08:46:17;614.80;2252.80
55016;DHT22;40919;43.236;21.590;2023-05-23T08:48:49;614.70;2227.20
55016;DHT22;40919;43.236;21.590;2023-05-23T08:51:16;614.70;2252.80
55016;DHT22;40919;43.236;21.590;2023-05-23T08:53:45;614.90;2201.60
55016;DHT22;40919;43.236;21.590;2023-05-23T08:56:12;614.90;2201.60
55016;DHT22;40919;43.236;21.590;2023-05-23T08:58:39;614.70;2176.00
55016;DHT22;40919;43.236;21.590;2023-05-23T09:01:09;615.10;2176.00
55016;DHT22;40919;43.236;21.590;2023-05-23T09:03:36;615.30;2150.40
55016;DHT22;40919;43.236;21.590;2023-05-23T09:06:05;640.50;2124.80
55016;DHT22;40919;43.236;21.590;2023-05-23T09:08:31;640.60;2150.40
55016;DHT22;40919;43.236;21.590;2023-05-23T09:10:57;640.70;2124.80
55016;DHT22;40919;43.236;21.590;2023-05-23T09:13:23;665.60;2150.40
55016;DHT22;40919;43.236;21.590;2023-05-23T09:16:01;665.70;2124.80
55016;DHT22;40919;43.236;21.590;2023-05-23T09:18:32;665.70;2099.20
55016;DHT22;40919;43.236;21.590;2023-05-23T09:20:59;665.90;2073.60
55016;DHT22;40919;43.236;21.590;2023-05-23T09:23:28;640.90;2022.40
55016;DHT22;40919;43.236;21.590;2023-05-23T09:25:54;665.70;2048.00
55016;DHT22;40919;43.236;21.590;2023-05-23T09:28:20;665.70;2022.40
55016;DHT22;40919;43.236;21.590;2023-05-23T09:30:45;640.70;1996.80
55016;DHT22;40919;43.236;21.590;2023-05-23T09:33:13;640.90;1971.20
55016;DHT22;40919;43.236;21.590;2023-05-23T09:35:43;640.90;1996.80
55016;DHT22;40919;43.236;21.590;2023-05-23T09:38:10;640.60;1971.20
55016;DHT22;40919;43.236;21.590;2023-05-23T09:40:36;640.90;1971.20
55016;DHT22;40919;43.236;21.590;2023-05-23T09:43:03;665.60;1971.20
55016;DHT22;40919;43.236;21.590;2023-05-23T09:45:31;665.90;1971.20
55016;DHT22;40919;43.236;21.590;2023-05-23T09:47:57;666.40;1996.80
55016;DHT22;40919;43.236;21.590;2023-05-23T09:50:24;666.40;1920.00
55016;DHT22;40919;43.236;21.590;2023-05-23T09:52:50;691.20;1920.00
55016;DHT22;40919;43.236;21.590;2023-05-23T09:55:18;666.10;1945.60
55016;DHT22;40919;43.236;21.590;2023-05-23T09:57:44;691.20;1920.00
55016;DHT22;40919;43.236;21.590;2023-05-23T10:00:14;691.60;1920.00
55016;DHT22;40919;43.236;21.590;2023-05-23T10:05:33;691.20;1920.00
55016;DHT22;40919;43.236;21.590;2023-05-23T10:08:03;691.40;1920.00
55016;DHT22;40919;43.236;21.590;2023-05-23T10:10:32;691.70;1894.40
55016;DHT22;40919;43.236;21.590;2023-05-23T10:13:01;692.00;1868.80
55016;DHT22;40919;43.236;21.590;2023-05-23T10:15:36;716.90;1894.40
55016;DHT22;40919;43.236;21.590;2023-05-23T10:18:34;717.10;1843.20
55016;DHT22;40919;43.236;21.590;2023-05-23T10:21:10;717.10;1843.20
55016;DHT22;40919;43.236;21.590;2023-05-23T10:23:37;716.80;1817.60
55016;DHT22;40919;43.236;21.590;2023-05-23T10:26:04;717.00;1792.00
55016;DHT22;40919;43.236;21.590;2023-05-23T10:28:31;716.90;1817.60
55016;DHT22;40919;43.236;21.590;2023-05-23T10:30:58;717.30;1817.60
55016;DHT22;40919;43.236;21.590;2023-05-23T10:33:26;717.50;1843.20
55016;DHT22;40919;43.236;21.590;2023-05-23T10:36:17;742.40;1843.20
55016;DHT22;40919;43.236;21.590;2023-05-23T10:41:17;717.70;1766.40
55016;DHT22;40919;43.236;21.590;2023-05-23T10:43:56;717.50;1766.40
55016;DHT22;40919;43.236;21.590;2023-05-23T10:46:50;717.70;1792.00
55016;DHT22;40919;43.236;21.590;2023-05-23T14:32:13;716.90;1766.40
55016;DHT22;40919;43.236;21.590;2023-05-23T14:34:39;717.10;1766.40
55016;DHT22;40919;43.236;21.590;2023-05-23T14:37:04;717.50;1715.20
55016;DHT22;40919;43.236;21.590;2023-05-23T14:39:30;717.70;1740.80
55016;DHT22;40919;43.236;21.590;2023-05-23T16:14:36;640.90;1996.80
55016;DHT22;40919;43.236;21.590;2023-05-23T16:17:02;640.80;1996.80
55016;DHT22;40919;43.236;21.590;2023-05-23T16:51:12;640.20;2201.60
55016;DHT22;40919;43.236;21.590;2023-05-23T16:53:38;640.10;2176.00
55016;DHT22;40919;43.236;21.590;2023-05-23T16:58:30;615.20;2278.40
55016;DHT22;40919;43.236;21.590;2023-05-23T17:01:00;615.30;2176.00
55016;DHT22;40919;43.236;21.590;2023-05-23T17:03:26;615.20;2150.40
55016;DHT22;40919;43.236;21.590;2023-05-23T17:05:53;615.20;2176.00
55016;DHT22;40919;43.236;21.590;2023-05-23T17:08:20;615.20;2150.40
55016;DHT22;40919;43.236;21.590;2023-05-23T17:10:46;615.20;2227.20
55016;DHT22;40919;43.236;21.590;2023-05-23T17:13:11;615.10;2227.20
55016;DHT22;40919;43.236;21.590;2023-05-23T17:15:37;615.00;2252.80
55016;DHT22;40919;43.236;21.590;2023-05-23T17:18:03;615.00;2227.20
55016;DHT22;40919;43.236;21.590;2023-05-23T17:37:35;589.70;2355.20
55016;DHT22;40919;43.236;21.590;2023-05-23T17:40:01;589.50;2355.20
55016;DHT22;40919;43.236;21.590;2023-05-23T17:42:27;589.50;2329.60
55016;DHT22;40919;43.236;21.590;2023-05-23T17:44:53;589.50;2329.60
55016;DHT22;40919;43.236;21.590;2023-05-23T17:47:19;589.50;2329.60
55016;DHT22;40919;43.236;21.590;2023-05-23T17:49:45;589.50;2355.20
55016;DHT22;40919;43.236;21.590;2023-05-23T17:52:11;589.50;2329.60
55016;DHT22;40919;43.236;21.590;2023-05-23T17:54:40;589.40;2329.60
55016;DHT22;40919;43.236;21.590;2023-05-23T17:57:05;589.30;2304.00
55016;DHT22;40919;43.236;21.590;2023-05-23T17:59:32;589.40;2380.80
55016;DHT22;40919;43.236;21.590;2023-05-23T18:01:59;589.20;2329.60
55016;DHT22;40919;43.236;21.590;2023-05-23T18:04:24;589.10;2380.80
55016;DHT22;40919;43.236;21.590;2023-05-23T18:06:50;588.80;2355.20
55016;DHT22;40919;43.236;21.590;2023-05-23T18:09:16;588.90;2380.80
55016;DHT22;40919;43.236;21.590;2023-05-23T18:11:42;588.90;2380.80
55016;DHT22;40919;43.236;21.590;2023-05-23T18:14:08;564.10;2406.40
55016;DHT22;40919;43.236;21.590;2023-05-23T18:16:33;564.10;2380.80
55016;DHT22;40919;43.236;21.590;2023-05-23T18:18:59;564.10;2380.80
55016;DHT22;40919;43.236;21.590;2023-05-23T18:21:25;564.00;2406.40
55016;DHT22;40919;43.236;21.590;2023-05-23T18:23:52;563.90;2406.40
55016;DHT22;40919;43.236;21.590;2023-05-23T18:26:17;563.90;2432.00
55016;DHT22;40919;43.236;21.590;2023-05-23T18:28:44;563.70;2432.00
55016;DHT22;40919;43.236;21.590;2023-05-23T18:31:10;563.50;2432.00
55016;DHT22;40919;43.236;21.590;2023-05-23T18:33:35;563.50;2432.00
55016;DHT22;40919;43.236;21.590;2023-05-23T18:36:01;563.40;2432.00
55016;DHT22;40919;43.236;21.590;2023-05-23T18:38:27;563.40;2432.00
55016;DHT22;40919;43.236;21.590;2023-05-23T18:40:53;563.40;2432.00
55016;DHT22;40919;43.236;21.590;2023-05-23T18:43:19;563.40;2432.00
55016;DHT22;40919;43.236;21.590;2023-05-23T18:45:45;563.20;2432.00
55016;DHT22;40919;43.236;21.590;2023-05-23T18:48:11;538.50;2406.40
55016;DHT22;40919;43.236;21.590;2023-05-23T18:50:37;538.50;2406.40
55016;DHT22;40919;43.236;21.590;2023-05-23T18:53:03;538.50;2406.40
55016;DHT22;40919;43.236;21.590;2023-05-23T18:55:29;538.50;2406.40
55016;DHT22;40919;43.236;21.590;2023-05-23T18:57:55;538.50;2406.40
55016;DHT22;40919;43.236;21.590;2023-05-23T19:00:21;538.30;2406.40
55016;DHT22;40919;43.236;21.590;2023-05-23T19:02:46;538.20;2406.40
55016;DHT22;40919;43.236;21.590;2023-05-23T19:05:13;538.20;2406.40
55016;DHT22;40919;43.236;21.590;2023-05-23T19:07:38;538.10;2406.40
55016;DHT22;40919;43.236;21.590;2023-05-23T19:10:05;538.10;2406.40
55016;DHT22;40919;43.236;21.590;2023-05-23T19:12:31;538.10;2406.40
55016;DHT22;40919;43.236;21.590;2023-05-23T19:14:57;538.00;2406.40
55016;DHT22;40919;43.236;21.590;2023-05-23T19:17:23;537.90;2406.40
55016;DHT22;40919;43.236;21.590;2023-05-23T19:19:49;537.80;2406.40
55016;DHT22;40919;43.236;21.590;2023-05-23T19:22:14;537.80;2406.40
55016;DHT22;40919;43.236;21.590;2023-05-23T19:24:40;537.70;2406.40
55016;DHT22;40919;43.236;21.590;2023-05-23T19:27:06;512.80;2380.80
55016;DHT22;40919;43.236;21.590;2023-05-23T19:29:32;537.70;2406.40
55016;DHT22;40919;43.236;21.590;2023-05-23T19:31:58;537.60;2406.40
55016;DHT22;40919;43.236;21.590;2023-05-23T19:34:24;512.80;2380.80
55016;DHT22;40919;43.236;21.590;2023-05-23T19:36:49;512.70;2380.80
55016;DHT22;40919;43.236;21.590;2023-05-23T19:39:15;512.60;2380.80
55016;DHT22;40919;43.236;21.590;2023-05-23T19:41:41;512.70;2380.80
55016;DHT22;40919;43.236;21.590;2023-05-23T19:44:08;512.70;2380.80
55016;DHT22;40919;43.236;21.590;2023-05-23T19:46:33;512.60;2380.80
55016;DHT22;40919;43.236;21.590;2023-05-23T19:48:59;512.50;2380.80
55016;DHT22;40919;43.236;21.590;2023-05-23T19:51:25;512.50;2380.80
55016;DHT22;40919;43.236;21.590;2023-05-23T19:56:19;512.30;2380.80
55016;DHT22;40919;43.236;21.590;2023-05-23T19:58:46;512.10;2380.80
55016;DHT22;40919;43.236;21.590;2023-05-23T20:01:12;512.00;2380.80
55016;DHT22;40919;43.236;21.590;2023-05-23T20:03:38;512.10;2380.80
55016;DHT22;40919;43.236;21.590;2023-05-23T20:08:30;512.00;2380.80
55016;DHT22;40919;43.236;21.590;2023-05-23T20:10:56;487.30;2380.80
55016;DHT22;40919;43.236;21.590;2023-05-23T20:13:24;512.00;2380.80
55016;DHT22;40919;43.236;21.590;2023-05-23T20:15:49;487.10;2380.80
55016;DHT22;40919;43.236;21.590;2023-05-23T20:18:15;487.20;2380.80
55016;DHT22;40919;43.236;21.590;2023-05-23T20:20:41;487.30;2380.80
55016;DHT22;40919;43.236;21.590;2023-05-23T20:23:08;487.10;2380.80
55016;DHT22;40919;43.236;21.590;2023-05-23T20:25:34;487.10;2380.80
55016;DHT22;40919;43.236;21.590;2023-05-23T20:28:00;487.10;2380.80
55016;DHT22;40919;43.236;21.590;2023-05-23T20:30:26;487.10;2380.80
55016;DHT22;40919;43.236;21.590;2023-05-23T20:32:52;487.00;2380.80
55016;DHT22;40919;43.236;21.590;2023-05-23T20:35:21;487.00;2380.80
55016;DHT22;40919;43.236;21.590;2023-05-23T20:37:48;486.90;2380.80
55016;DHT22;40919;43.236;21.590;2023-05-23T20:40:18;486.80;2380.80
55016;DHT22;40919;43.236;21.590;2023-05-23T20:42:44;486.70;2380.80
55016;DHT22;40919;43.236;21.590;2023-05-23T20:45:10;486.80;2380.80
55016;DHT22;40919;43.236;21.590;2023-05-23T20:47:36;486.70;2380.80
55016;DHT22;40919;43.236;21.590;2023-05-23T20:50:07;486.70;2380.80
55016;DHT22;40919;43.236;21.590;2023-05-23T20:52:35;486.70;2380.80
55016;DHT22;40919;43.236;21.590;2023-05-23T20:55:04;486.80;2380.80
55016;DHT22;40919;43.236;21.590;2023-05-23T20:57:30;486.70;2380.80
55016;DHT22;40919;43.236;21.590;2023-05-23T20:59:57;486.50;2380.80
55016;DHT22;40919;43.236;21.590;2023-05-23T21:02:23;486.50;2380.80